createdAt,value
2024-01-09T00:00:10.844Z,1.70
2024-01-09T00:03:00.483Z,0.40
2024-01-09T00:05:30.637Z,1.60
2024-01-09T00:07:59.319Z,1.20
2024-01-09T00:10:28.459Z,1.40
2024-01-09T00:12:58.285Z,1.80
2024-01-09T00:15:26.933Z,0.80
2024-01-09T00:17:55.304Z,0.70
2024-01-09T00:20:23.967Z,1.60
2024-01-09T00:22:52.764Z,0.30
2024-01-09T00:25:21.413Z,0.20
2024-01-09T00:27:50.168Z,0.60
2024-01-09T00:30:20.861Z,1.10
2024-01-09T00:32:50.846Z,0.50
2024-01-09T00:35:20.557Z,0.40
2024-01-09T00:37:48.921Z,1.50
2024-01-09T00:40:17.918Z,0.90
2024-01-09T00:42:46.264Z,0.30
2024-01-09T00:45:14.906Z,0.50
2024-01-09T00:47:43.372Z,0.60
2024-01-09T00:50:12.145Z,0.50
2024-01-09T00:52:40.643Z,0.80
2024-01-09T00:57:38.191Z,0.50
2024-01-09T01:02:35.623Z,0.30
2024-01-09T01:05:04.614Z,1.30
2024-01-09T01:07:33.029Z,0.20
2024-01-09T01:10:01.432Z,0.70
2024-01-09T01:12:30.021Z,0.20
2024-01-09T01:14:58.356Z,0.90
2024-01-09T01:17:26.669Z,1.10
2024-01-09T01:19:55.528Z,0.60
2024-01-09T01:22:24.008Z,0.40
2024-01-09T01:27:20.428Z,0.40
2024-01-09T01:29:48.768Z,0.60
2024-01-09T01:32:17.246Z,0.50
2024-01-09T01:37:15.447Z,0.40
2024-01-09T01:39:43.909Z,1.40
2024-01-09T01:42:12.494Z,0.40
2024-01-09T01:47:11.726Z,0.40
2024-01-09T01:49:40.502Z,1.00
2024-01-09T01:52:10.343Z,0.70
2024-01-09T01:54:42.062Z,0.30
2024-01-09T01:57:11.600Z,0.30
2024-01-09T01:59:44.211Z,0.40
2024-01-09T02:02:15.288Z,0.40
2024-01-09T02:04:44.814Z,0.10
2024-01-09T02:07:13.643Z,1.50
2024-01-09T02:12:10.669Z,1.30
2024-01-09T02:14:39.120Z,0.40
2024-01-09T02:19:36.165Z,0.40
2024-01-09T02:22:05.137Z,0.70
2024-01-09T02:24:34.966Z,0.30
2024-01-09T02:27:42.472Z,0.30
2024-01-09T02:30:11.703Z,0.40
2024-01-09T02:32:40.647Z,0.70
2024-01-09T02:35:09.755Z,0.30
2024-01-09T02:37:38.322Z,0.30
2024-01-09T02:40:09.285Z,0.70
2024-01-09T02:42:37.664Z,2.70
2024-01-09T02:47:34.398Z,1.50
2024-01-09T02:50:03.191Z,0.30
2024-01-09T02:52:31.810Z,0.40
2024-01-09T02:55:00.232Z,0.70
2024-01-09T02:57:28.818Z,0.50
2024-01-09T02:59:57.412Z,0.90
2024-01-09T03:02:26.209Z,0.60
2024-01-09T03:04:54.631Z,0.50
2024-01-09T03:07:23.243Z,0.50
2024-01-09T03:09:51.637Z,0.70
2024-01-09T03:14:48.606Z,0.70
2024-01-09T03:17:17.125Z,0.60
2024-01-09T03:22:14.401Z,2.70
2024-01-09T03:24:43.225Z,0.50
2024-01-09T03:27:11.587Z,0.40
2024-01-09T03:29:41.537Z,0.30
2024-01-09T03:32:10.450Z,0.30
2024-01-09T03:34:43.351Z,0.40
2024-01-09T03:37:12.598Z,0.40
2024-01-09T03:39:41.059Z,0.40
2024-01-09T03:42:09.853Z,0.50
2024-01-09T03:44:38.652Z,0.60
2024-01-09T03:47:07.098Z,0.30
2024-01-09T03:49:35.839Z,0.40
2024-01-09T03:52:05.166Z,0.50
2024-01-09T03:54:33.841Z,1.50
2024-01-09T03:57:02.631Z,0.50
2024-01-09T03:59:31.549Z,0.60
2024-01-09T04:01:59.868Z,1.00
2024-01-09T04:04:29.296Z,0.30
2024-01-09T04:06:58.325Z,0.60
2024-01-09T04:09:26.819Z,0.60
2024-01-09T04:11:55.621Z,0.50
2024-01-09T04:14:24.114Z,1.00
2024-01-09T04:16:52.540Z,0.20
2024-01-09T04:19:21.249Z,1.30
2024-01-09T04:21:50.133Z,0.50
2024-01-09T04:24:18.651Z,1.10
2024-01-09T04:26:47.098Z,0.40
2024-01-09T04:29:15.768Z,0.70
2024-01-09T04:31:44.238Z,0.80
2024-01-09T04:34:12.768Z,2.60
2024-01-09T04:36:41.088Z,1.50
2024-01-09T04:41:37.894Z,1.20
2024-01-09T04:46:34.603Z,1.50
2024-01-09T04:51:33.926Z,1.40
2024-01-09T04:54:02.554Z,1.20
2024-01-09T04:58:59.206Z,1.40
2024-01-09T05:01:27.871Z,1.20
2024-01-09T05:03:56.494Z,1.00
2024-01-09T05:06:25.113Z,2.20
2024-01-09T05:08:53.952Z,1.40
2024-01-09T05:11:23.435Z,1.30
2024-01-09T05:13:52.256Z,1.20
2024-01-09T05:16:20.696Z,1.20
2024-01-09T05:18:49.418Z,1.70
2024-01-09T05:21:18.701Z,2.20
2024-01-09T05:23:47.292Z,2.70
2024-01-09T05:26:19.272Z,3.60
2024-01-09T05:28:53.727Z,4.60
2024-01-09T05:31:26.750Z,4.30
2024-01-09T05:33:57.251Z,4.90
2024-01-09T05:36:26.361Z,6.00
2024-01-09T05:38:55.383Z,5.70
2024-01-09T05:41:25.087Z,5.20
2024-01-09T05:43:54.064Z,4.30
2024-01-09T05:46:25.136Z,4.20
2024-01-09T05:48:55.391Z,3.30
2024-01-09T05:51:28.538Z,3.10
2024-01-09T05:54:01.409Z,3.20
2024-01-09T05:56:29.866Z,2.70
2024-01-09T06:01:28.683Z,4.20
2024-01-09T06:03:57.574Z,3.30
2024-01-09T06:06:26.963Z,3.20
2024-01-09T06:08:55.981Z,3.20
2024-01-09T06:11:26.125Z,3.00
2024-01-09T06:13:57.509Z,1.80
2024-01-09T06:16:26.379Z,2.20
2024-01-09T06:18:54.950Z,3.80
2024-01-09T06:21:24.006Z,3.00
2024-01-09T06:26:21.236Z,1.90
2024-01-09T06:28:50.720Z,2.50
2024-01-09T06:31:19.781Z,2.00
2024-01-09T06:33:49.667Z,2.00
2024-01-09T06:36:18.222Z,0.90
2024-01-09T06:38:46.764Z,2.30
2024-01-09T06:41:16.166Z,3.30
2024-01-09T06:43:46.085Z,3.00
2024-01-09T06:46:14.711Z,3.80
2024-01-09T06:48:43.345Z,5.00
2024-01-09T06:51:14.905Z,4.50
2024-01-09T06:53:43.427Z,4.00
2024-01-09T06:56:13.263Z,10.00
2024-01-09T06:58:41.830Z,10.00
2024-01-09T07:03:44.649Z,8.60
2024-01-09T07:06:14.090Z,6.80
2024-01-09T07:08:42.663Z,6.40
2024-01-09T07:11:11.728Z,5.00
2024-01-09T07:13:40.335Z,4.30
2024-01-09T07:16:08.915Z,2.10
2024-01-09T07:18:39.100Z,2.80
2024-01-09T07:21:07.954Z,2.20
2024-01-09T07:23:36.694Z,2.00
2024-01-09T07:26:05.238Z,2.90
2024-01-09T07:28:34.217Z,3.30
2024-01-09T07:31:04.550Z,4.50
2024-01-09T07:33:33.551Z,4.10
2024-01-09T07:36:02.842Z,4.70
2024-01-09T07:38:31.546Z,4.80
2024-01-09T07:41:01.195Z,5.90
2024-01-09T07:43:32.533Z,3.50
2024-01-09T07:46:06.699Z,2.60
2024-01-09T07:48:43.489Z,1.40
2024-01-09T07:51:20.749Z,1.10
2024-01-09T07:54:02.820Z,1.50
2024-01-09T07:56:35.976Z,5.50
2024-01-09T07:59:04.969Z,1.00
2024-01-09T08:01:33.727Z,2.10
2024-01-09T08:04:02.949Z,2.40
2024-01-09T08:06:31.678Z,1.80
2024-01-09T08:09:00.833Z,1.30
2024-01-09T08:11:29.986Z,1.40
2024-01-09T08:13:59.048Z,1.40
2024-01-09T08:16:28.945Z,2.10
2024-01-09T08:18:57.959Z,1.80
2024-01-09T08:21:26.628Z,3.00
2024-01-09T08:23:55.946Z,0.50
2024-01-09T08:26:26.098Z,0.90
2024-01-09T08:28:55.184Z,0.90
2024-01-09T08:31:24.928Z,1.10
2024-01-09T08:33:53.752Z,0.80
2024-01-09T08:36:22.244Z,0.80
2024-01-09T08:38:51.174Z,0.60
2024-01-09T08:41:22.420Z,0.60
2024-01-09T08:43:51.285Z,0.60
2024-01-09T08:46:19.779Z,0.30
2024-01-09T08:48:48.828Z,1.10
2024-01-09T08:51:21.270Z,0.60
2024-01-09T08:53:56.198Z,1.10
2024-01-09T08:56:25.190Z,0.90
2024-01-09T08:58:53.916Z,1.50
2024-01-09T09:01:23.548Z,0.70
2024-01-09T09:03:53.251Z,1.30
2024-01-09T09:06:21.963Z,0.40
2024-01-09T09:08:50.848Z,0.20
2024-01-09T09:11:20.108Z,0.40
2024-01-09T09:13:48.809Z,0.50
2024-01-09T09:16:17.922Z,0.50
2024-01-09T09:18:55.415Z,0.60
2024-01-09T09:21:28.204Z,0.30
2024-01-09T09:23:58.734Z,0.40
2024-01-09T09:26:28.927Z,0.30
2024-01-09T09:29:06.568Z,0.70
2024-01-09T09:31:40.991Z,0.60
2024-01-09T09:34:10.894Z,0.90
2024-01-09T09:36:39.599Z,1.30
2024-01-09T09:41:38.081Z,0.50
2024-01-09T09:44:08.537Z,0.90
2024-01-09T09:46:40.539Z,0.90
2024-01-09T09:49:11.095Z,0.60
2024-01-09T09:51:41.474Z,0.50
2024-01-09T09:54:12.748Z,0.90
2024-01-09T09:56:44.101Z,0.50
2024-01-09T09:59:13.849Z,0.30
2024-01-09T10:01:44.065Z,0.20
2024-01-09T10:04:26.158Z,0.40
2024-01-09T10:07:00.681Z,0.30
2024-01-09T10:09:43.404Z,0.40
2024-01-09T10:12:12.170Z,0.90
2024-01-09T10:15:03.750Z,1.20
2024-01-09T10:20:04.311Z,0.40
2024-01-09T10:22:46.955Z,0.40
2024-01-09T10:25:19.200Z,0.50
2024-01-09T10:27:48.106Z,0.40
2024-01-09T10:30:17.570Z,0.40
2024-01-09T10:32:48.673Z,0.80
2024-01-09T10:35:17.343Z,0.30
2024-01-09T10:37:46.719Z,0.40
2024-01-09T10:40:15.739Z,1.10
2024-01-09T10:42:48.952Z,1.50
2024-01-09T10:45:22.487Z,0.40
2024-01-09T10:47:55.844Z,1.30
2024-01-09T10:50:26.184Z,0.40
2024-01-09T10:52:57.819Z,0.40
2024-01-09T10:55:27.032Z,0.50
2024-01-09T10:57:59.060Z,0.30
2024-01-09T11:00:31.845Z,0.40
2024-01-09T11:03:01.244Z,0.30
2024-01-09T11:05:30.926Z,0.40
2024-01-09T11:08:02.715Z,0.40
2024-01-09T11:10:33.292Z,1.10
2024-01-09T11:13:08.008Z,0.40
2024-01-09T11:15:48.179Z,0.30
2024-01-09T11:18:18.508Z,0.80
2024-01-09T11:20:47.561Z,0.30
2024-01-09T11:23:16.004Z,0.60
2024-01-09T11:25:51.669Z,0.40
2024-01-09T11:28:43.200Z,1.00
2024-01-09T11:31:18.674Z,0.20
2024-01-09T11:33:53.148Z,0.50
2024-01-09T11:36:25.417Z,0.30
2024-01-09T11:38:54.837Z,0.40
2024-01-09T11:41:31.580Z,0.30
2024-01-09T11:44:06.772Z,0.50
2024-01-09T11:46:39.694Z,0.60
2024-01-09T11:49:09.170Z,0.50
2024-01-09T11:51:38.534Z,0.30
2024-01-09T11:54:11.211Z,0.70
2024-01-09T11:56:40.403Z,0.30
2024-01-09T11:59:09.283Z,0.50
2024-01-09T12:01:41.722Z,0.30
2024-01-09T12:04:13.719Z,0.30
2024-01-09T12:06:44.783Z,0.70
2024-01-09T12:09:14.895Z,0.90
2024-01-09T12:11:45.172Z,0.50
2024-01-09T12:14:13.829Z,0.60
2024-01-09T12:16:46.348Z,0.60
2024-01-09T12:19:17.720Z,0.50
2024-01-09T12:21:47.576Z,0.30
2024-01-09T12:24:25.492Z,0.60
2024-01-09T12:26:58.702Z,0.70
2024-01-09T12:29:28.311Z,0.30
2024-01-09T12:31:57.516Z,0.30
2024-01-09T12:34:26.434Z,0.20
2024-01-09T12:36:55.342Z,0.60
2024-01-09T12:39:26.764Z,0.30
2024-01-09T12:42:12.199Z,0.20
2024-01-09T12:44:45.076Z,0.30
2024-01-09T12:47:17.126Z,0.40
2024-01-09T12:49:59.010Z,0.70
2024-01-09T12:52:33.798Z,1.00
2024-01-09T12:55:09.642Z,0.50
2024-01-09T12:57:42.635Z,0.40
2024-01-09T13:00:20.509Z,1.10
2024-01-09T13:02:56.053Z,1.10
2024-01-09T13:05:25.289Z,0.50
2024-01-09T13:07:54.409Z,0.50
2024-01-09T13:10:22.797Z,0.30
2024-01-09T13:15:19.420Z,0.20
2024-01-09T13:17:50.524Z,0.50
2024-01-09T13:20:19.467Z,0.30
2024-01-09T13:25:19.752Z,0.80
2024-01-09T13:27:49.825Z,0.50
2024-01-09T13:32:50.610Z,0.40
2024-01-09T13:35:19.270Z,0.40
2024-01-09T13:37:47.922Z,0.50
2024-01-09T13:40:18.035Z,0.60
2024-01-09T13:42:46.774Z,1.60
2024-01-09T13:45:17.967Z,1.30
2024-01-09T13:47:46.636Z,0.30
2024-01-09T13:52:48.425Z,0.30
2024-01-09T13:55:17.462Z,0.70
2024-01-09T13:57:47.022Z,0.70
2024-01-09T14:00:18.022Z,0.70
2024-01-09T14:02:46.927Z,0.50
2024-01-09T14:05:20.892Z,0.50
2024-01-09T14:07:54.449Z,0.60
2024-01-09T14:10:26.277Z,0.30
2024-01-09T14:12:56.502Z,0.40
2024-01-09T14:17:53.030Z,0.20
2024-01-09T14:22:50.628Z,0.70
2024-01-09T14:27:48.552Z,1.70
2024-01-09T14:30:20.202Z,0.30
2024-01-09T14:32:50.612Z,0.20
2024-01-09T14:35:20.819Z,0.90
2024-01-09T14:37:49.649Z,0.70
2024-01-09T14:40:18.590Z,0.70
2024-01-09T14:42:47.092Z,1.30
2024-01-09T14:47:44.324Z,0.30
2024-01-09T14:50:13.215Z,0.60
2024-01-09T14:52:43.042Z,1.30
2024-01-09T14:55:11.724Z,0.80
2024-01-09T14:57:42.390Z,1.50
2024-01-09T15:00:15.427Z,0.50
2024-01-09T15:02:44.031Z,1.10
2024-01-09T15:05:12.606Z,0.70
2024-01-09T15:07:43.555Z,0.70
2024-01-09T15:10:13.188Z,2.20
2024-01-09T15:12:41.866Z,0.60
2024-01-09T15:15:11.631Z,1.10
2024-01-09T15:17:41.610Z,0.50
2024-01-09T15:20:11.866Z,1.10
2024-01-09T15:22:40.536Z,0.70
2024-01-09T15:25:12.398Z,1.60
2024-01-09T15:27:41.026Z,0.50
2024-01-09T15:30:12.470Z,0.60
2024-01-09T15:32:41.341Z,4.10
2024-01-09T15:35:12.954Z,4.10
2024-01-09T15:37:41.598Z,1.70
2024-01-09T15:40:14.651Z,3.60
2024-01-09T15:42:43.936Z,1.20
2024-01-09T15:45:20.106Z,1.50
2024-01-09T15:47:52.088Z,2.00
2024-01-09T15:50:20.493Z,1.60
2024-01-09T15:55:19.620Z,1.80
2024-01-09T15:57:48.172Z,1.20
2024-01-09T16:02:53.697Z,0.90
2024-01-09T16:05:23.430Z,1.30
2024-01-09T16:07:55.353Z,1.50
2024-01-09T16:10:24.210Z,1.60
2024-01-09T16:12:52.685Z,2.00
2024-01-09T16:17:49.896Z,1.10
2024-01-09T16:20:18.742Z,0.90
2024-01-09T16:22:48.756Z,1.20
2024-01-09T16:25:17.081Z,1.50
2024-01-09T16:27:45.449Z,1.10
2024-01-09T16:32:45.482Z,1.30
2024-01-09T16:35:14.217Z,1.70
2024-01-09T16:37:43.068Z,1.80
2024-01-09T16:42:41.253Z,2.30
2024-01-09T16:45:11.128Z,1.90
2024-01-09T16:47:40.094Z,2.80
2024-01-09T16:50:09.476Z,1.20
2024-01-09T16:52:38.286Z,2.50
2024-01-09T16:55:07.574Z,1.00
2024-01-09T16:57:36.414Z,1.50
2024-01-09T17:00:06.088Z,1.10
2024-01-09T17:02:34.851Z,0.90
2024-01-09T17:05:05.958Z,1.80
2024-01-09T17:07:34.797Z,2.30
2024-01-09T17:10:04.206Z,1.20
2024-01-09T17:12:32.768Z,2.80
2024-01-09T17:15:01.247Z,3.60
2024-01-09T17:19:58.766Z,0.90
2024-01-09T17:22:29.332Z,1.20
2024-01-09T17:24:58.060Z,0.80
2024-01-09T17:29:56.035Z,1.00
2024-01-09T17:32:27.813Z,1.30
2024-01-09T17:34:57.003Z,1.10
2024-01-09T17:37:25.569Z,1.00
2024-01-09T17:42:22.974Z,1.20
2024-01-09T17:44:51.787Z,0.90
2024-01-09T17:47:20.868Z,1.60
2024-01-09T17:49:49.216Z,1.80
2024-01-09T17:52:17.851Z,1.60
2024-01-09T17:54:47.472Z,1.80
2024-01-09T17:57:16.891Z,1.70
2024-01-09T17:59:46.303Z,1.70
2024-01-09T18:02:18.259Z,1.50
2024-01-09T18:04:47.564Z,1.20
2024-01-09T18:07:16.999Z,2.10
2024-01-09T18:09:45.938Z,2.60
2024-01-09T18:12:15.905Z,1.10
2024-01-09T18:14:44.697Z,4.80
2024-01-09T18:17:13.897Z,3.50
2024-01-09T18:19:43.313Z,6.40
2024-01-09T18:22:11.865Z,7.20
2024-01-09T18:24:41.055Z,10.40
2024-01-09T18:27:09.600Z,7.80
2024-01-09T18:29:38.830Z,10.30
2024-01-09T18:32:07.578Z,9.10
2024-01-09T18:34:38.297Z,8.40
2024-01-09T18:37:07.060Z,6.70
2024-01-09T18:39:35.416Z,6.70
2024-01-09T18:42:07.345Z,7.60
2024-01-09T18:44:36.159Z,8.60
2024-01-09T18:47:04.936Z,12.90
2024-01-09T18:49:35.707Z,7.50
2024-01-09T18:52:06.107Z,8.10
2024-01-09T18:54:34.642Z,10.10
2024-01-09T18:59:32.162Z,8.50
2024-01-09T19:02:00.826Z,7.40
2024-01-09T19:07:23.802Z,8.70
2024-01-09T19:09:52.124Z,12.50
2024-01-09T19:12:20.581Z,9.60
2024-01-09T19:14:49.145Z,11.20
2024-01-09T19:17:18.170Z,11.10
2024-01-09T19:19:48.747Z,12.90
2024-01-09T19:22:17.615Z,8.90
2024-01-09T19:24:47.850Z,9.40
2024-01-09T19:27:16.934Z,8.30
2024-01-09T19:29:45.807Z,8.10
2024-01-09T19:32:15.433Z,5.00
2024-01-09T19:34:44.150Z,3.60
2024-01-09T19:37:12.609Z,4.50
2024-01-09T19:39:45.524Z,3.60
2024-01-09T19:42:13.935Z,6.10
2024-01-09T19:44:42.366Z,8.30
2024-01-09T19:47:10.748Z,9.10
2024-01-09T19:49:39.335Z,9.90
2024-01-09T19:52:07.773Z,10.50
2024-01-09T19:54:39.278Z,11.70
2024-01-09T19:57:10.352Z,9.90
2024-01-09T20:02:11.853Z,11.50
2024-01-09T20:07:08.918Z,9.30
2024-01-09T20:09:39.884Z,11.60
2024-01-09T20:12:09.287Z,15.10
2024-01-09T20:14:37.932Z,12.70
2024-01-09T20:17:06.906Z,11.50
2024-01-09T20:19:42.824Z,12.20
2024-01-09T20:22:13.103Z,16.70
2024-01-09T20:24:46.672Z,13.30
2024-01-09T20:27:16.601Z,14.40
2024-01-09T20:29:45.508Z,15.10
2024-01-09T20:32:14.272Z,17.60
2024-01-09T20:34:43.099Z,18.00
2024-01-09T20:37:12.803Z,10.40
2024-01-09T20:39:41.560Z,13.40
2024-01-09T20:42:10.046Z,15.30
2024-01-09T20:44:41.476Z,13.00
2024-01-09T20:47:10.050Z,13.60
2024-01-09T20:52:09.082Z,12.60
2024-01-09T20:54:37.553Z,16.50
2024-01-09T20:57:06.397Z,14.10
2024-01-09T20:59:34.781Z,13.90
2024-01-09T21:02:03.843Z,13.40
2024-01-09T21:04:33.241Z,12.00
2024-01-09T21:07:01.904Z,9.90
2024-01-09T21:09:30.473Z,9.90
2024-01-09T21:11:58.983Z,7.70
2024-01-09T21:14:27.278Z,7.50
2024-01-09T21:16:56.280Z,7.90
2024-01-09T21:19:25.096Z,8.40
2024-01-09T21:21:53.512Z,7.00
2024-01-09T21:24:21.996Z,6.00
2024-01-09T21:26:50.311Z,8.40
2024-01-09T21:29:18.894Z,7.00
2024-01-09T21:31:48.320Z,7.00
2024-01-09T21:34:17.047Z,6.10
2024-01-09T21:36:45.652Z,5.40
2024-01-09T21:39:14.222Z,6.30
2024-01-09T21:41:47.561Z,7.20
2024-01-09T21:44:16.099Z,8.40
2024-01-09T21:46:44.586Z,7.70
2024-01-09T21:49:13.835Z,7.30
2024-01-09T21:51:42.242Z,6.10
2024-01-09T21:54:10.645Z,9.40
2024-01-09T21:56:39.167Z,8.90
2024-01-09T21:59:08.024Z,12.60
2024-01-09T22:01:37.549Z,9.20
2024-01-09T22:04:06.030Z,10.70
2024-01-09T22:09:03.259Z,9.60
2024-01-09T22:11:31.618Z,11.30
2024-01-09T22:14:00.089Z,7.70
2024-01-09T22:16:28.758Z,8.20
2024-01-09T22:21:26.726Z,11.80
2024-01-09T22:23:55.415Z,13.80
2024-01-09T22:28:53.302Z,8.60
2024-01-09T22:31:21.909Z,12.90
2024-01-09T22:33:50.413Z,8.00
2024-01-09T22:38:47.158Z,7.80
2024-01-09T22:41:15.586Z,5.60
2024-01-09T22:46:12.625Z,6.00
2024-01-09T22:48:40.937Z,5.20
2024-01-09T22:51:12.086Z,7.80
2024-01-09T22:53:44.688Z,3.90
2024-01-09T22:56:16.943Z,4.20
2024-01-09T22:58:46.612Z,4.40
2024-01-09T23:01:15.157Z,3.80
2024-01-09T23:06:12.685Z,6.50
2024-01-09T23:08:41.832Z,6.30
2024-01-09T23:11:10.663Z,3.50
2024-01-09T23:13:41.762Z,5.30
2024-01-09T23:16:10.084Z,7.60
2024-01-09T23:18:38.700Z,10.40
2024-01-09T23:21:09.349Z,7.30
2024-01-09T23:23:37.758Z,6.70
2024-01-09T23:26:06.072Z,5.80
2024-01-09T23:28:35.379Z,6.20
2024-01-09T23:31:04.817Z,6.20
2024-01-09T23:33:33.745Z,8.50
2024-01-09T23:36:02.219Z,5.20
2024-01-09T23:38:30.852Z,6.10
2024-01-09T23:40:59.313Z,8.90
2024-01-09T23:43:28.143Z,6.30
2024-01-09T23:45:56.679Z,4.30
2024-01-09T23:48:25.161Z,7.60
2024-01-09T23:53:22.058Z,4.60
2024-01-09T23:58:18.913Z,4.90
